Bloomery, WV (26817)

9:58 AM EST on February 08, 2016 (GMT -0500)
The Crossings - Wolf Hollow | | Change Station
CLOSE
Current Station
Personal Weather Station
Location: Great Cacapon, WV
Elevation: 643 ft
Nearby Weather Stations

Elev 643 ft 39.45 °N, 78.42 °W | Updated 5 seconds ago

Partly Cloudy
Partly Cloudy
34.9 °F
Feels Like 35 °F
N
0.0
Wind Variable Wind from ENE
Gusts 0.0 mph

Today
High -- | Low -- °F
--% Chance of Precip.
Yesterday
High -- | Low -- °F
Precip. -- in
Pressure 29.78 in
Visibility 10.0 miles
Clouds Scattered Clouds 11000 ft
Windchill 35 °F
Dew Point 22 °F
Humidity 60%
Rainfall 0.00 in
Snow Depth Not available.
7:14 AM 5:41 PM
Waning Crescent, 0% visible
METAR KOKV 081435Z AUTO 25003KT 10SM SCT110 02/M02 A2978 RMK AO2
Pressure 29.78 in
Visibility 10.0 miles
Clouds Scattered Clouds 11000 ft
Windchill 35 °F
Dew Point 22 °F
Humidity 60%
Rainfall 0.00 in
Snow Depth Not available.
7:14 AM 5:41 PM
Waning Crescent, 0% visible
METAR KOKV 081435Z AUTO 25003KT 10SM SCT110 02/M02 A2978 RMK AO2

10-Day Weather Forecast

Almanac

Astronomy

Feb. 08, 2016 Rise Set
Actual Time
Civil Twilight
Nautical Twilight
Astronomical Twilight
Moon
Length of Visible Light
Length of Day
Tomorrow will be .
, % of the Moon is Illuminated

Today's Extremes

State Highs State Lows

Community

WunderPhotos

Upload Photos

1,891,437 photos uploaded!

WunderBlog® & News

Nearby

Air Quality

  Air Quality AQ Index Pollutant
Not available.

Snow Depth

Station Depth Elevation

Earthquake Activity

City Distance Mag. Time & Date
Minimum magnitude displayed is 2.5.

Coastal Water Temperatures

Place Temperature

Stations

Nearby Weather Stations

Station Location Temp. Windchill Dew Point Humidity Wind Precip. Elev Updated Type
                   

Watches & Warnings

There are currently no watches in effect.